createdAt,value
2022-11-28T00:00:30.426Z,8.32
2022-11-28T00:01:38.506Z,8.85
2022-11-28T00:02:42.004Z,8.40
2022-11-28T00:03:45.018Z,9.60
2022-11-28T00:04:52.240Z,8.23
2022-11-28T00:05:55.468Z,7.50
2022-11-28T00:06:59.349Z,8.52
2022-11-28T00:08:02.496Z,7.90
2022-11-28T00:09:09.631Z,8.50
2022-11-28T00:10:13.080Z,7.80
2022-11-28T00:11:16.822Z,7.87
2022-11-28T00:12:19.828Z,7.20
2022-11-28T00:13:22.784Z,7.57
2022-11-28T00:14:25.777Z,7.57
2022-11-28T00:15:28.619Z,7.53
2022-11-28T00:16:32.320Z,7.62
2022-11-28T00:17:35.109Z,7.57
2022-11-28T00:18:38.259Z,8.02
2022-11-28T00:19:41.109Z,7.47
2022-11-28T00:20:44.059Z,7.00
2022-11-28T00:21:46.867Z,7.78
2022-11-28T00:22:50.023Z,8.13
2022-11-28T00:23:53.663Z,7.00
2022-11-28T00:24:56.617Z,8.00
2022-11-28T00:26:05.471Z,7.62
2022-11-28T00:27:11.591Z,7.60
2022-11-28T00:28:15.023Z,7.60
2022-11-28T00:29:18.223Z,7.47
2022-11-28T00:30:21.067Z,6.97
2022-11-28T00:31:27.109Z,8.23
2022-11-28T00:32:30.260Z,8.18
2022-11-28T00:33:34.168Z,7.97
2022-11-28T00:34:37.130Z,7.85
2022-11-28T00:35:40.023Z,7.97
2022-11-28T00:36:47.239Z,8.93
2022-11-28T00:37:50.361Z,7.25
2022-11-28T00:38:53.467Z,7.55
2022-11-28T00:39:56.656Z,8.82
2022-11-28T00:41:08.139Z,8.10
2022-11-28T00:42:11.017Z,7.05
2022-11-28T00:43:13.820Z,8.80
2022-11-28T00:44:16.685Z,8.05
2022-11-28T00:45:19.541Z,8.40
2022-11-28T00:46:23.361Z,9.25
2022-11-28T00:47:29.621Z,11.10
2022-11-28T00:48:35.079Z,10.93
2022-11-28T00:49:37.948Z,10.98
2022-11-28T00:50:40.899Z,8.45
2022-11-28T00:51:44.058Z,9.30
2022-11-28T00:52:46.821Z,9.23
2022-11-28T00:53:53.585Z,11.77
2022-11-28T00:54:56.459Z,10.82
2022-11-28T00:55:59.337Z,11.45
2022-11-28T00:57:02.459Z,9.02
2022-11-28T00:58:05.937Z,10.85
2022-11-28T00:59:09.350Z,10.00
2022-11-28T01:00:12.897Z,10.02
2022-11-28T01:01:20.875Z,9.55
2022-11-28T01:02:23.908Z,9.40
2022-11-28T01:03:27.027Z,9.38
2022-11-28T01:04:30.137Z,10.60
2022-11-28T01:05:33.097Z,10.38
2022-11-28T01:06:42.304Z,10.30
2022-11-28T01:07:45.271Z,10.77
2022-11-28T01:08:48.372Z,9.32
2022-11-28T01:09:51.338Z,9.35
2022-11-28T01:10:54.514Z,8.80
2022-11-28T01:11:57.381Z,9.85
2022-11-28T01:13:00.340Z,9.65
2022-11-28T01:14:03.362Z,9.38
2022-11-28T01:15:09.082Z,9.90
2022-11-28T01:16:12.230Z,9.25
2022-11-28T01:17:15.090Z,9.85
2022-11-28T01:18:18.390Z,10.07
2022-11-28T01:19:21.674Z,9.43
2022-11-28T01:20:24.740Z,9.00
2022-11-28T01:21:27.866Z,9.05
2022-11-28T01:22:30.763Z,8.77
2022-11-28T01:23:34.245Z,8.40
2022-11-28T01:24:37.161Z,8.00
2022-11-28T01:25:40.173Z,8.50
2022-11-28T01:26:45.182Z,8.65
2022-11-28T01:27:48.596Z,8.57
2022-11-28T01:28:52.594Z,8.73
2022-11-28T01:29:55.330Z,8.18
2022-11-28T01:31:07.288Z,7.87
2022-11-28T01:32:13.780Z,8.63
2022-11-28T01:33:16.587Z,7.75
2022-11-28T01:34:25.588Z,8.48
2022-11-28T01:35:28.467Z,9.05
2022-11-28T01:36:31.853Z,9.75
2022-11-28T01:37:34.828Z,9.80
2022-11-28T01:38:38.354Z,9.00
2022-11-28T01:39:42.737Z,8.70
2022-11-28T01:40:46.840Z,9.07
2022-11-28T01:41:55.656Z,8.63
2022-11-28T01:42:58.510Z,7.53
2022-11-28T01:44:16.419Z,9.15
2022-11-28T01:45:33.871Z,8.20
2022-11-28T01:46:37.590Z,11.10
2022-11-28T01:47:41.620Z,11.27
2022-11-28T01:48:45.341Z,9.23
2022-11-28T01:49:50.109Z,9.35
2022-11-28T01:50:57.144Z,9.10
2022-11-28T01:52:13.422Z,9.15
2022-11-28T01:53:17.698Z,9.80
2022-11-28T01:54:25.779Z,9.65
2022-11-28T01:55:33.897Z,8.55
2022-11-28T01:56:47.995Z,9.02
2022-11-28T01:57:56.305Z,9.00
2022-11-28T01:59:04.783Z,9.65
2022-11-28T02:00:15.070Z,10.13
2022-11-28T02:01:20.812Z,9.15
2022-11-28T02:02:32.618Z,9.63
2022-11-28T02:03:47.715Z,10.48
2022-11-28T02:04:51.201Z,10.10
2022-11-28T02:05:54.825Z,10.93
2022-11-28T02:06:58.009Z,10.55
2022-11-28T02:08:01.103Z,10.32
2022-11-28T02:09:06.771Z,9.15
2022-11-28T02:10:12.746Z,10.57
2022-11-28T02:11:37.352Z,10.70
2022-11-28T02:12:46.317Z,10.20
2022-11-28T02:14:21.842Z,9.30
2022-11-28T02:15:39.291Z,10.27
2022-11-28T02:17:08.033Z,9.75
2022-11-28T02:18:39.039Z,9.50
2022-11-28T02:20:08.105Z,10.75
2022-11-28T02:21:32.250Z,9.10
2022-11-28T02:22:58.772Z,9.10
2022-11-28T02:24:16.693Z,9.48
2022-11-28T02:25:50.747Z,8.88
2022-11-28T02:26:53.508Z,9.50
2022-11-28T02:28:45.417Z,9.85
2022-11-28T02:30:00.776Z,9.63
2022-11-28T02:31:16.406Z,9.80
2022-11-28T02:32:47.901Z,9.23
2022-11-28T02:33:57.340Z,8.70
2022-11-28T02:35:28.355Z,8.80
2022-11-28T02:36:37.296Z,9.15
2022-11-28T02:38:12.899Z,9.02
2022-11-28T02:39:46.146Z,9.38
2022-11-28T02:40:54.460Z,9.27
2022-11-28T02:42:01.750Z,9.63
2022-11-28T02:43:25.256Z,9.23
2022-11-28T02:44:44.207Z,8.48
2022-11-28T02:46:11.653Z,8.63
2022-11-28T02:47:30.459Z,8.75
2022-11-28T02:48:52.275Z,8.23
2022-11-28T02:50:05.025Z,8.23
2022-11-28T02:51:19.099Z,8.48
2022-11-28T02:52:28.105Z,8.90
2022-11-28T02:53:33.311Z,9.65
2022-11-28T02:54:38.585Z,8.88
2022-11-28T02:55:43.339Z,8.88
2022-11-28T02:56:53.505Z,8.95
2022-11-28T02:57:56.469Z,8.70
2022-11-28T02:59:00.278Z,9.52
2022-11-28T03:00:23.340Z,9.20
2022-11-28T03:01:34.366Z,8.68
2022-11-28T03:02:37.936Z,7.93
2022-11-28T03:03:55.738Z,8.57
2022-11-28T03:04:58.549Z,7.87
2022-11-28T03:06:27.906Z,8.27
2022-11-28T03:07:47.007Z,7.85
2022-11-28T03:09:01.816Z,8.52
2022-11-28T03:10:24.672Z,8.27
2022-11-28T03:11:27.966Z,7.80
2022-11-28T03:12:51.654Z,7.90
2022-11-28T03:14:03.531Z,8.13
2022-11-28T03:15:09.622Z,8.43
2022-11-28T03:16:29.535Z,7.80
2022-11-28T03:17:44.787Z,8.38
2022-11-28T03:19:20.157Z,8.95
2022-11-28T03:20:39.065Z,7.75
2022-11-28T03:21:56.685Z,7.45
2022-11-28T03:23:15.193Z,8.13
2022-11-28T03:24:28.263Z,7.78
2022-11-28T03:25:55.819Z,8.88
2022-11-28T03:27:26.022Z,8.93
2022-11-28T03:28:43.226Z,8.73
2022-11-28T03:29:52.837Z,7.72
2022-11-28T03:31:03.511Z,8.27
2022-11-28T03:32:30.098Z,7.18
2022-11-28T03:33:36.863Z,7.87
2022-11-28T03:34:46.476Z,9.50
2022-11-28T03:35:56.461Z,8.18
2022-11-28T03:37:08.776Z,8.18
2022-11-28T03:38:19.371Z,8.68
2022-11-28T03:39:34.146Z,8.05
2022-11-28T03:40:46.064Z,7.90
2022-11-28T03:41:55.630Z,7.87
2022-11-28T03:43:03.777Z,7.45
2022-11-28T03:44:11.852Z,8.77
2022-11-28T03:45:22.099Z,8.27
2022-11-28T03:46:31.626Z,8.20
2022-11-28T03:47:44.282Z,7.70
2022-11-28T03:48:59.430Z,8.48
2022-11-28T03:50:08.224Z,8.07
2022-11-28T03:51:37.700Z,6.45
2022-11-28T03:52:55.469Z,8.23
2022-11-28T03:54:17.671Z,8.02
2022-11-28T03:55:50.332Z,7.97
2022-11-28T03:57:20.829Z,8.10
2022-11-28T03:58:31.309Z,8.60
2022-11-28T03:59:36.747Z,9.60
2022-11-28T04:00:59.945Z,9.60
2022-11-28T04:02:37.698Z,9.43
2022-11-28T04:04:09.093Z,9.70
2022-11-28T04:05:30.300Z,9.23
2022-11-28T04:07:03.979Z,9.55
2022-11-28T04:08:21.864Z,8.02
2022-11-28T04:09:45.537Z,9.20
2022-11-28T04:10:57.419Z,9.43
2022-11-28T04:12:17.905Z,8.65
2022-11-28T04:13:32.419Z,9.95
2022-11-28T04:14:41.710Z,9.23
2022-11-28T04:15:44.659Z,10.35
2022-11-28T04:17:07.668Z,9.73
2022-11-28T04:18:32.267Z,9.93
2022-11-28T04:19:42.667Z,10.80
2022-11-28T04:21:04.621Z,10.50
2022-11-28T04:22:31.385Z,10.07
2022-11-28T04:23:37.027Z,8.98
2022-11-28T04:24:46.114Z,9.88
2022-11-28T04:26:01.780Z,9.27
2022-11-28T04:27:10.616Z,9.35
2022-11-28T04:28:21.401Z,9.68
2022-11-28T04:29:26.867Z,9.37
2022-11-28T04:30:29.905Z,10.52
2022-11-28T04:31:34.369Z,9.98
2022-11-28T04:32:42.698Z,10.75
2022-11-28T04:33:57.349Z,10.77
2022-11-28T04:35:07.261Z,9.70
2022-11-28T04:36:12.187Z,10.80
2022-11-28T04:37:17.096Z,10.10
2022-11-28T04:38:23.398Z,10.85
2022-11-28T04:39:28.471Z,10.07
2022-11-28T04:40:35.428Z,10.80
2022-11-28T04:41:43.186Z,10.15
2022-11-28T04:42:53.304Z,9.80
2022-11-28T04:44:22.553Z,10.68
2022-11-28T04:45:36.218Z,10.52
2022-11-28T04:46:51.343Z,10.63
2022-11-28T04:47:56.421Z,9.65
2022-11-28T04:49:01.622Z,11.20
2022-11-28T04:50:05.100Z,10.25
2022-11-28T04:51:19.652Z,9.82
2022-11-28T04:54:13.932Z,9.35
2022-11-28T04:55:47.420Z,10.02
2022-11-28T04:57:04.313Z,9.38
2022-11-28T04:58:16.504Z,9.30
2022-11-28T04:59:21.057Z,10.55
2022-11-28T05:00:24.114Z,9.52
2022-11-28T05:01:31.617Z,10.75
2022-11-28T05:02:36.654Z,10.77
2022-11-28T05:03:42.732Z,10.32
2022-11-28T05:04:45.985Z,10.77
2022-11-28T05:05:51.465Z,9.73
2022-11-28T05:07:02.943Z,10.18
2022-11-28T05:08:05.941Z,9.40
2022-11-28T05:09:13.587Z,9.52
2022-11-28T05:10:18.336Z,10.75
2022-11-28T05:11:24.618Z,9.88
2022-11-28T05:12:27.494Z,9.70
2022-11-28T05:13:30.343Z,10.30
2022-11-28T05:14:36.642Z,10.27
2022-11-28T05:15:39.547Z,9.52
2022-11-28T05:16:42.379Z,10.82
2022-11-28T05:17:48.456Z,10.15
2022-11-28T05:18:51.535Z,8.93
2022-11-28T05:19:54.945Z,10.57
2022-11-28T05:20:59.623Z,10.13
2022-11-28T05:22:02.467Z,9.52
2022-11-28T05:23:05.564Z,10.27
2022-11-28T05:24:09.364Z,11.02
2022-11-28T05:25:12.367Z,9.65
2022-11-28T05:26:18.522Z,9.60
2022-11-28T05:27:21.379Z,9.77
2022-11-28T05:28:25.091Z,10.55
2022-11-28T05:29:27.838Z,9.63
2022-11-28T05:30:30.664Z,9.45
2022-11-28T05:31:33.992Z,10.02
2022-11-28T05:32:36.911Z,9.82
2022-11-28T05:33:40.095Z,11.15
2022-11-28T05:34:43.360Z,10.93
2022-11-28T05:35:46.486Z,10.15
2022-11-28T05:36:49.442Z,10.52
2022-11-28T05:37:52.396Z,9.43
2022-11-28T05:38:55.213Z,10.82
2022-11-28T05:39:58.282Z,10.38
2022-11-28T05:41:01.751Z,9.52
2022-11-28T05:42:04.884Z,10.95
2022-11-28T05:43:07.998Z,9.55
2022-11-28T05:44:11.008Z,11.00
2022-11-28T05:45:13.883Z,10.65
2022-11-28T05:46:17.082Z,11.23
2022-11-28T05:47:19.985Z,11.35
2022-11-28T05:48:23.573Z,10.73
2022-11-28T05:49:26.586Z,10.82
2022-11-28T05:50:29.492Z,10.25
2022-11-28T05:52:39.907Z,10.80
2022-11-28T05:53:42.942Z,9.90
2022-11-28T05:54:45.790Z,9.95
2022-11-28T05:55:48.747Z,11.45
2022-11-28T05:56:51.857Z,9.93
2022-11-28T05:57:55.177Z,10.75
2022-11-28T05:58:58.479Z,10.82
2022-11-28T06:00:01.991Z,10.43
2022-11-28T06:01:13.045Z,10.60
2022-11-28T06:02:16.060Z,9.73
2022-11-28T06:03:18.933Z,10.52
2022-11-28T06:04:21.693Z,11.45
2022-11-28T06:05:41.712Z,10.43
2022-11-28T06:06:45.910Z,10.18
2022-11-28T06:07:48.675Z,10.07
2022-11-28T06:08:52.685Z,10.50
2022-11-28T06:09:55.480Z,10.43
2022-11-28T06:10:59.704Z,10.82
2022-11-28T06:12:03.300Z,10.52
2022-11-28T06:13:06.637Z,9.60
2022-11-28T06:14:11.743Z,11.02
2022-11-28T06:15:14.963Z,9.82
2022-11-28T06:16:28.612Z,11.35
2022-11-28T06:17:31.984Z,9.23
2022-11-28T06:18:39.333Z,10.15
2022-11-28T06:19:42.928Z,11.10
2022-11-28T06:20:45.995Z,10.85
2022-11-28T06:21:50.756Z,10.18
2022-11-28T06:22:53.574Z,10.48
2022-11-28T06:23:58.339Z,10.55
2022-11-28T06:25:01.151Z,10.50
2022-11-28T06:26:09.359Z,11.10
2022-11-28T06:27:12.302Z,10.13
2022-11-28T06:28:15.276Z,10.40
2022-11-28T06:29:18.483Z,10.45
2022-11-28T06:30:21.364Z,10.45
2022-11-28T06:31:30.666Z,10.02
2022-11-28T06:32:33.439Z,10.23
2022-11-28T06:33:36.189Z,10.35
2022-11-28T06:34:39.117Z,9.88
2022-11-28T06:35:42.088Z,10.85
2022-11-28T06:36:45.525Z,9.63
2022-11-28T06:37:48.354Z,9.88
2022-11-28T06:38:51.970Z,10.40
2022-11-28T06:39:54.850Z,9.85
2022-11-28T06:41:03.980Z,9.68
2022-11-28T06:42:10.649Z,10.45
2022-11-28T06:43:13.580Z,9.90
2022-11-28T06:44:17.313Z,9.77
2022-11-28T06:45:20.031Z,10.82
2022-11-28T06:46:23.815Z,10.13
2022-11-28T06:47:26.656Z,10.52
2022-11-28T06:48:30.101Z,9.63
2022-11-28T06:49:32.992Z,8.93
2022-11-28T06:50:36.137Z,10.52
2022-11-28T06:51:42.269Z,9.73
2022-11-28T06:52:45.318Z,9.48
2022-11-28T06:53:48.778Z,10.30
2022-11-28T06:54:51.603Z,9.82
2022-11-28T06:55:54.384Z,10.90
2022-11-28T06:56:57.279Z,10.18
2022-11-28T06:58:00.213Z,10.65
2022-11-28T06:59:03.363Z,9.88
2022-11-28T07:00:07.051Z,9.40
2022-11-28T07:01:18.507Z,10.50
2022-11-28T07:02:24.444Z,10.82
2022-11-28T07:03:28.970Z,10.07
2022-11-28T07:04:32.221Z,9.88
2022-11-28T07:05:35.078Z,11.00
2022-11-28T07:06:38.554Z,11.30
2022-11-28T07:07:53.046Z,9.70
2022-11-28T07:08:59.186Z,9.80
2022-11-28T07:10:02.041Z,10.75
2022-11-28T07:11:11.921Z,10.80
2022-11-28T07:12:16.910Z,11.63
2022-11-28T07:13:20.089Z,11.35
2022-11-28T07:14:23.140Z,10.73
2022-11-28T07:15:26.966Z,11.57
2022-11-28T07:16:34.021Z,11.18
2022-11-28T07:17:36.849Z,11.30
2022-11-28T07:18:44.735Z,12.43
2022-11-28T07:19:53.393Z,11.60
2022-11-28T07:20:58.154Z,11.93
2022-11-28T07:22:01.090Z,11.93
2022-11-28T07:23:03.944Z,12.80
2022-11-28T07:24:07.396Z,12.70
2022-11-28T07:25:11.215Z,12.35
2022-11-28T07:26:17.704Z,12.48
2022-11-28T07:27:20.616Z,13.32
2022-11-28T07:28:29.993Z,12.55
2022-11-28T07:29:36.776Z,12.68
2022-11-28T07:30:39.696Z,13.07
2022-11-28T07:31:42.932Z,13.50
2022-11-28T07:32:46.500Z,13.50
2022-11-28T07:33:50.805Z,11.85
2022-11-28T07:34:54.238Z,12.68
2022-11-28T07:36:04.681Z,12.70
2022-11-28T07:37:08.269Z,12.60
2022-11-28T07:38:11.838Z,12.60
2022-11-28T07:39:17.806Z,11.95
2022-11-28T07:40:23.248Z,13.48
2022-11-28T07:41:27.320Z,13.25
2022-11-28T07:42:30.469Z,13.65
2022-11-28T07:43:33.596Z,13.10
2022-11-28T07:44:36.419Z,13.45
2022-11-28T07:45:59.572Z,12.98
2022-11-28T07:47:04.055Z,11.98
2022-11-28T07:48:07.146Z,13.77
2022-11-28T07:49:10.164Z,13.13
2022-11-28T07:50:13.052Z,12.82
2022-11-28T07:51:21.080Z,13.30
2022-11-28T07:52:23.976Z,13.68
2022-11-28T07:53:26.887Z,13.25
2022-11-28T07:54:29.721Z,13.65
2022-11-28T07:55:35.495Z,12.90
2022-11-28T07:57:10.862Z,14.52
2022-11-28T07:58:04.112Z,11.10
2022-11-28T07:59:07.720Z,12.15
2022-11-28T08:00:11.119Z,13.90
2022-11-28T08:01:22.072Z,12.73
2022-11-28T08:02:25.357Z,12.80
2022-11-28T08:03:28.821Z,12.85
2022-11-28T08:04:31.693Z,12.55
2022-11-28T08:05:34.698Z,14.13
2022-11-28T08:06:40.837Z,12.95
2022-11-28T08:07:43.884Z,13.88
2022-11-28T08:08:48.545Z,14.70
2022-11-28T08:09:54.823Z,13.07
2022-11-28T08:10:59.762Z,12.75
2022-11-28T08:12:02.728Z,13.45
2022-11-28T08:13:05.479Z,12.52
2022-11-28T08:14:08.373Z,12.43
2022-11-28T08:15:11.635Z,12.48
2022-11-28T08:16:24.788Z,11.88
2022-11-28T08:17:27.693Z,12.55
2022-11-28T08:18:36.672Z,12.35
2022-11-28T08:19:39.552Z,12.70
2022-11-28T08:20:42.563Z,11.80
2022-11-28T08:21:45.783Z,11.48
2022-11-28T08:22:48.735Z,12.40
2022-11-28T08:23:54.017Z,13.75
2022-11-28T08:24:57.536Z,12.07
2022-11-28T08:26:02.430Z,11.75
2022-11-28T08:27:05.535Z,11.88
2022-11-28T08:28:09.120Z,12.57
2022-11-28T08:29:12.245Z,13.05
2022-11-28T08:30:15.595Z,12.32
2022-11-28T08:31:27.312Z,12.07
2022-11-28T08:32:33.753Z,12.00
2022-11-28T08:33:37.397Z,12.50
2022-11-28T08:34:40.793Z,11.57
2022-11-28T08:35:43.649Z,11.12
2022-11-28T08:36:50.416Z,12.07
2022-11-28T08:37:55.594Z,11.95
2022-11-28T08:39:22.230Z,13.32
2022-11-28T08:40:25.424Z,12.25
2022-11-28T08:41:28.305Z,11.68
2022-11-28T08:42:31.282Z,13.68
2022-11-28T08:43:35.350Z,11.73
2022-11-28T08:44:38.335Z,12.63
2022-11-28T08:45:42.833Z,11.80
2022-11-28T08:46:46.197Z,12.65
2022-11-28T08:47:48.916Z,11.18
2022-11-28T08:48:53.108Z,11.73
2022-11-28T08:49:56.445Z,12.73
2022-11-28T08:50:59.319Z,12.95
2022-11-28T08:52:03.789Z,12.10
2022-11-28T08:53:08.051Z,11.70
2022-11-28T08:54:11.072Z,12.68
2022-11-28T08:55:13.944Z,12.50
2022-11-28T08:56:17.378Z,12.93
2022-11-28T08:57:20.409Z,13.45
2022-11-28T08:58:23.550Z,11.93
2022-11-28T08:59:26.442Z,12.13
2022-11-28T09:00:29.213Z,11.25
2022-11-28T09:01:32.369Z,11.95
2022-11-28T09:02:38.695Z,12.23
2022-11-28T09:03:41.544Z,11.02
2022-11-28T09:04:44.495Z,12.05
2022-11-28T09:05:48.482Z,12.15
2022-11-28T09:06:51.668Z,12.93
2022-11-28T09:07:58.255Z,11.12
2022-11-28T09:09:03.169Z,11.65
2022-11-28T09:10:06.796Z,12.02
2022-11-28T09:11:11.501Z,11.57
2022-11-28T09:12:14.625Z,11.52
2022-11-28T09:13:17.845Z,12.20
2022-11-28T09:14:20.672Z,12.82
2022-11-28T09:15:23.569Z,11.50
2022-11-28T09:16:26.569Z,11.50
2022-11-28T09:17:29.460Z,11.18
2022-11-28T09:18:32.976Z,11.10
2022-11-28T09:19:35.851Z,11.20
2022-11-28T09:20:39.795Z,10.70
2022-11-28T09:21:42.681Z,10.50
2022-11-28T09:22:47.465Z,10.75
2022-11-28T09:23:50.437Z,11.70
2022-11-28T09:24:53.420Z,11.50
2022-11-28T09:25:57.096Z,11.52
2022-11-28T09:27:00.295Z,10.38
2022-11-28T09:28:03.527Z,11.07
2022-11-28T09:29:06.705Z,11.07
2022-11-28T09:30:11.999Z,10.40
2022-11-28T09:31:16.670Z,10.45
2022-11-28T09:32:19.756Z,11.80
2022-11-28T09:33:22.519Z,10.48
2022-11-28T09:34:25.450Z,11.32
2022-11-28T09:35:28.333Z,10.70
2022-11-28T09:36:32.712Z,11.90
2022-11-28T09:37:35.936Z,10.80
2022-11-28T09:38:40.438Z,13.02
2022-11-28T09:39:57.435Z,11.25
2022-11-28T09:41:34.216Z,11.35
2022-11-28T09:42:43.874Z,11.93
2022-11-28T09:43:53.493Z,11.63
2022-11-28T09:45:05.497Z,10.63
2022-11-28T09:46:16.236Z,11.93
2022-11-28T09:47:23.481Z,12.37
2022-11-28T09:48:29.824Z,11.20
2022-11-28T09:49:47.570Z,11.20
2022-11-28T09:50:55.856Z,11.98
2022-11-28T09:52:06.974Z,12.43
2022-11-28T09:53:24.755Z,11.35
2022-11-28T09:54:56.641Z,12.13
2022-11-28T09:56:17.632Z,11.73
2022-11-28T09:57:42.536Z,10.75
2022-11-28T09:58:59.124Z,10.52
2022-11-28T10:00:02.421Z,10.85
2022-11-28T10:01:11.460Z,11.40
2022-11-28T10:02:35.131Z,11.07
2022-11-28T10:04:10.281Z,11.30
2022-11-28T10:05:36.435Z,9.93
2022-11-28T10:06:57.477Z,8.52
2022-11-28T10:08:21.467Z,9.68
2022-11-28T10:09:43.160Z,9.10
2022-11-28T10:11:11.709Z,10.50
2022-11-28T10:12:37.470Z,9.50
2022-11-28T10:15:32.844Z,10.48
2022-11-28T10:17:01.988Z,10.63
2022-11-28T10:18:23.480Z,9.93
2022-11-28T10:19:53.851Z,9.75
2022-11-28T10:21:03.132Z,10.52
2022-11-28T10:22:12.456Z,11.57
2022-11-28T10:23:45.916Z,9.73
2022-11-28T10:24:56.571Z,10.88
2022-11-28T10:26:06.258Z,10.43
2022-11-28T10:27:14.036Z,10.88
2022-11-28T10:28:39.185Z,10.30
2022-11-28T10:29:54.642Z,10.50
2022-11-28T10:31:27.700Z,11.90
2022-11-28T10:32:40.972Z,11.60
2022-11-28T10:33:50.565Z,11.00
2022-11-28T10:35:05.911Z,11.48
2022-11-28T10:36:17.472Z,10.77
2022-11-28T10:37:28.864Z,11.98
2022-11-28T10:38:38.647Z,11.18
2022-11-28T10:39:44.933Z,10.45
2022-11-28T10:40:56.381Z,12.23
2022-11-28T10:42:13.976Z,10.73
2022-11-28T10:43:25.785Z,11.15
2022-11-28T10:44:35.595Z,10.68
2022-11-28T10:45:47.309Z,11.27
2022-11-28T10:48:41.053Z,11.15
2022-11-28T10:50:16.340Z,9.88
2022-11-28T10:51:29.079Z,11.88
2022-11-28T10:52:47.610Z,11.70
2022-11-28T10:54:02.833Z,11.57
2022-11-28T10:55:37.352Z,11.40
2022-11-28T10:56:49.830Z,10.93
2022-11-28T10:58:10.796Z,12.73
2022-11-28T10:59:38.253Z,11.30
2022-11-28T11:00:45.777Z,10.77
2022-11-28T11:01:51.470Z,11.80
2022-11-28T11:03:00.613Z,11.90
2022-11-28T11:04:04.230Z,11.32
2022-11-28T11:05:15.842Z,12.13
2022-11-28T11:06:18.620Z,11.75
2022-11-28T11:07:32.152Z,11.82
2022-11-28T11:08:40.293Z,12.23
2022-11-28T11:09:44.357Z,11.75
2022-11-28T11:10:50.959Z,13.18
2022-11-28T11:12:02.885Z,11.65
2022-11-28T11:13:20.793Z,11.88
2022-11-28T11:14:41.973Z,11.77
2022-11-28T11:15:46.553Z,11.93
2022-11-28T11:16:56.735Z,11.43
2022-11-28T11:18:29.152Z,12.63
2022-11-28T11:19:41.095Z,12.27
2022-11-28T11:20:44.284Z,12.23
2022-11-28T11:22:04.198Z,12.80
2022-11-28T11:23:17.904Z,13.13
2022-11-28T11:24:21.353Z,14.07
2022-11-28T11:25:32.994Z,12.90
2022-11-28T11:27:55.483Z,12.60
2022-11-28T11:28:58.481Z,12.98
2022-11-28T11:30:15.925Z,12.68
2022-11-28T11:31:44.456Z,12.43
2022-11-28T11:32:51.351Z,13.55
2022-11-28T11:34:04.691Z,13.18
2022-11-28T11:35:23.127Z,12.45
2022-11-28T11:36:31.604Z,12.90
2022-11-28T11:37:39.338Z,13.73
2022-11-28T11:38:42.633Z,13.25
2022-11-28T11:39:56.756Z,13.62
2022-11-28T11:41:21.924Z,12.75
2022-11-28T11:42:32.231Z,13.43
2022-11-28T11:43:38.072Z,13.57
2022-11-28T11:44:41.207Z,14.02
2022-11-28T11:45:47.236Z,14.15
2022-11-28T11:47:03.343Z,14.38
2022-11-28T11:48:06.359Z,15.00
2022-11-28T11:49:39.666Z,14.50
2022-11-28T11:50:54.258Z,11.77
2022-11-28T11:51:59.072Z,14.07
2022-11-28T11:53:07.096Z,14.10
2022-11-28T11:54:12.957Z,14.87
2022-11-28T11:55:18.698Z,14.43
2022-11-28T11:56:21.782Z,14.52
2022-11-28T11:57:33.600Z,13.68
2022-11-28T11:58:51.968Z,15.05
2022-11-28T12:00:09.985Z,13.10
2022-11-28T12:01:15.838Z,14.05
2022-11-28T12:02:33.098Z,13.57
2022-11-28T12:03:57.305Z,12.85
2022-11-28T12:05:14.358Z,13.13
2022-11-28T12:06:41.467Z,14.52
2022-11-28T12:08:25.822Z,13.18
2022-11-28T12:09:42.393Z,13.20
2022-11-28T12:11:04.253Z,13.13
2022-11-28T12:12:30.093Z,14.48
2022-11-28T12:13:34.102Z,13.65
2022-11-28T12:14:40.992Z,14.35
2022-11-28T12:15:53.859Z,14.23
2022-11-28T12:17:47.275Z,15.30
2022-11-28T12:19:18.907Z,14.93
2022-11-28T12:20:53.885Z,15.10
2022-11-28T12:22:34.218Z,15.13
2022-11-28T12:23:54.765Z,14.90
2022-11-28T12:25:30.409Z,13.13
2022-11-28T12:27:18.302Z,13.73
2022-11-28T12:28:59.375Z,14.40
2022-11-28T12:30:20.359Z,13.02
2022-11-28T12:31:23.306Z,14.20
2022-11-28T12:32:34.785Z,14.20
2022-11-28T12:33:44.867Z,15.43
2022-11-28T12:35:12.126Z,14.60
2022-11-28T12:36:38.547Z,15.98
2022-11-28T12:38:10.765Z,14.57
2022-11-28T12:39:17.846Z,15.23
2022-11-28T12:40:38.683Z,15.77
2022-11-28T12:42:11.646Z,14.52
2022-11-28T12:43:27.372Z,14.48
2022-11-28T12:45:05.970Z,13.60
2022-11-28T12:46:22.081Z,14.40
2022-11-28T12:47:39.838Z,13.48
2022-11-28T12:49:03.609Z,14.55
2022-11-28T12:50:30.738Z,14.73
2022-11-28T12:51:37.191Z,14.50
2022-11-28T12:52:52.552Z,14.35
2022-11-28T12:54:10.733Z,14.38
2022-11-28T12:55:28.656Z,14.55
2022-11-28T12:56:55.268Z,14.87
2022-11-28T12:58:06.859Z,14.82
2022-11-28T12:59:35.397Z,13.70
2022-11-28T13:00:50.579Z,14.32
2022-11-28T13:02:16.843Z,14.95
2022-11-28T13:03:31.743Z,15.63
2022-11-28T13:04:34.540Z,15.82
2022-11-28T13:06:14.869Z,14.98
2022-11-28T13:07:36.241Z,14.82
2022-11-28T13:09:05.613Z,15.20
2022-11-28T13:10:23.345Z,13.55
2022-11-28T13:11:31.321Z,15.05
2022-11-28T13:12:52.544Z,17.48
2022-11-28T13:14:03.055Z,16.98
2022-11-28T13:15:44.086Z,17.12
2022-11-28T13:16:50.819Z,14.75
2022-11-28T13:19:50.854Z,14.75
2022-11-28T13:21:07.141Z,14.75
2022-11-28T13:22:23.739Z,14.32
2022-11-28T13:23:48.461Z,15.15
2022-11-28T13:25:14.677Z,14.38
2022-11-28T13:26:36.328Z,14.87
2022-11-28T13:28:06.359Z,13.95
2022-11-28T13:29:28.060Z,14.40
2022-11-28T13:30:41.494Z,16.30
2022-11-28T13:32:01.932Z,14.73
2022-11-28T13:33:27.726Z,15.82
2022-11-28T13:34:31.902Z,15.07
2022-11-28T13:35:35.593Z,15.80
2022-11-28T13:38:37.922Z,15.48
2022-11-28T13:39:52.022Z,14.98
2022-11-28T13:41:17.918Z,16.50
2022-11-28T13:43:03.869Z,15.48
2022-11-28T13:44:21.115Z,15.30
2022-11-28T13:46:52.508Z,15.30
2022-11-28T13:47:55.732Z,16.65
2022-11-28T13:49:15.205Z,15.45
2022-11-28T13:50:30.569Z,15.93
2022-11-28T13:51:34.497Z,16.17
2022-11-28T13:52:46.857Z,15.52
2022-11-28T13:54:19.433Z,16.25
2022-11-28T13:56:04.585Z,15.55
2022-11-28T13:57:21.744Z,16.20
2022-11-28T13:59:01.941Z,15.88
2022-11-28T14:00:07.399Z,16.90
2022-11-28T14:01:31.218Z,17.30
2022-11-28T14:02:46.130Z,16.33
2022-11-28T14:03:57.945Z,16.33
2022-11-28T14:05:02.057Z,15.75
2022-11-28T14:06:07.346Z,17.20
2022-11-28T14:07:25.836Z,15.80
2022-11-28T14:08:37.274Z,15.48
2022-11-28T14:09:56.371Z,16.40
2022-11-28T14:11:14.172Z,16.45
2022-11-28T14:12:34.427Z,15.38
2022-11-28T14:13:46.176Z,15.35
2022-11-28T14:14:54.484Z,15.55
2022-11-28T14:16:19.730Z,15.98
2022-11-28T14:17:47.486Z,14.82
2022-11-28T14:19:00.596Z,15.27
2022-11-28T14:20:32.742Z,14.63
2022-11-28T14:21:38.601Z,15.90
2022-11-28T14:23:08.173Z,15.35
2022-11-28T14:24:42.293Z,15.23
2022-11-28T14:25:49.399Z,14.63
2022-11-28T14:27:02.832Z,15.32
2022-11-28T14:28:17.018Z,14.77
2022-11-28T14:29:35.503Z,14.68
2022-11-28T14:30:45.278Z,15.55
2022-11-28T14:32:13.700Z,16.30
2022-11-28T14:33:15.430Z,14.13
2022-11-28T14:34:40.591Z,13.93
2022-11-28T14:35:58.780Z,15.70
2022-11-28T14:37:19.809Z,14.40
2022-11-28T14:38:32.349Z,15.52
2022-11-28T14:39:35.509Z,14.55
2022-11-28T14:40:53.518Z,14.27
2022-11-28T14:42:10.297Z,14.38
2022-11-28T14:43:43.170Z,15.45
2022-11-28T14:44:57.429Z,15.48
2022-11-28T14:46:30.968Z,15.23
2022-11-28T14:47:42.941Z,13.88
2022-11-28T14:48:58.587Z,14.87
2022-11-28T14:50:08.096Z,14.93
2022-11-28T14:51:11.177Z,14.30
2022-11-28T14:53:45.243Z,14.32
2022-11-28T14:54:50.103Z,15.35
2022-11-28T14:55:52.938Z,14.40
2022-11-28T14:56:59.840Z,15.45
2022-11-28T14:58:05.575Z,14.23
2022-11-28T14:59:12.394Z,14.77
2022-11-28T15:00:19.040Z,13.95
2022-11-28T15:01:59.920Z,14.27
2022-11-28T15:03:24.981Z,14.82
2022-11-28T15:04:47.911Z,14.57
2022-11-28T15:06:01.889Z,15.00
2022-11-28T15:07:23.743Z,14.45
2022-11-28T15:08:55.483Z,14.87
2022-11-28T15:10:11.960Z,13.43
2022-11-28T15:11:15.000Z,14.70
2022-11-28T15:12:49.130Z,14.63
2022-11-28T15:14:01.514Z,15.40
2022-11-28T15:15:08.218Z,13.95
2022-11-28T15:16:14.401Z,15.52
2022-11-28T15:17:21.883Z,15.00
2022-11-28T15:18:26.660Z,14.40
2022-11-28T15:19:50.251Z,16.17
2022-11-28T15:21:01.442Z,15.48
2022-11-28T15:22:04.866Z,16.58
2022-11-28T15:23:26.380Z,15.77
2022-11-28T15:24:38.544Z,14.43
2022-11-28T15:25:44.698Z,15.63
2022-11-28T15:26:57.354Z,14.77
2022-11-28T15:28:14.744Z,15.93
2022-11-28T15:29:20.673Z,15.70
2022-11-28T15:30:26.920Z,15.65
2022-11-28T15:31:30.720Z,14.85
2022-11-28T15:32:34.876Z,15.57
2022-11-28T15:33:40.170Z,15.50